Time;durP1;ratioP1;P1;durP2;ratioP2;P2;SDS_P1;SDS_P2;PMS_P1;PMS_P2;Temp;Humidity;BMP_temperature;BMP_pressure;BME280_temperature;BME280_humidity;BME280_pressure;Samples;Min_cycle;Max_cycle;Signal;HPM_P1;HPM_P2
2023/03/30 00:00:57;;;;;;;21.48;14.70;;;10.50;99.90;;;;;;5073397;28;20295;-58
2023/03/30 00:03:25;;;;;;;23.30;15.07;;;10.30;99.90;;;;;;5071981;28;20580;-57
2023/03/30 00:05:55;;;;;;;22.27;15.55;;;10.20;99.90;;;;;;5088969;28;20408;-57
2023/03/30 00:08:28;;;;;;;21.17;14.45;;;10.50;99.90;;;;;;5073660;28;20464;-56
2023/03/30 00:11:09;;;;;;;21.95;13.32;;;10.60;99.90;;;;;;5073061;28;20132;-57
2023/03/30 00:13:36;;;;;;;17.92;13.68;;;10.50;99.90;;;;;;5071647;28;20370;-57
2023/03/30 00:16:03;;;;;;;19.50;14.32;;;10.40;99.90;;;;;;5072466;28;20400;-57
2023/03/30 00:18:29;;;;;;;19.73;12.75;;;10.40;99.90;;;;;;5071414;28;20059;-57
2023/03/30 00:20:57;;;;;;;19.08;12.73;;;10.50;99.90;;;;;;5072644;28;20038;-58
2023/03/30 00:23:23;;;;;;;17.25;12.82;;;10.40;99.90;;;;;;5073271;28;20040;-57
2023/03/30 00:25:48;;;;;;;18.42;12.13;;;10.60;99.90;;;;;;5071834;28;20489;-57
2023/03/30 00:28:14;;;;;;;19.02;11.95;;;10.60;99.90;;;;;;5071813;28;20071;-58
2023/03/30 00:30:40;;;;;;;15.10;10.82;;;10.40;99.90;;;;;;5071516;28;20063;-57
2023/03/30 00:33:06;;;;;;;13.52;9.98;;;10.70;99.90;;;;;;5072405;28;20063;-57
2023/03/30 00:35:32;;;;;;;16.20;10.45;;;10.70;99.90;;;;;;5072131;28;20044;-57
2023/03/30 00:38:00;;;;;;;15.20;9.25;;;10.80;99.90;;;;;;5071518;28;20054;-58
2023/03/30 00:40:27;;;;;;;15.13;8.30;;;10.80;99.90;;;;;;5070269;28;20044;-56
2023/03/30 00:43:12;;;;;;;15.15;9.10;;;10.80;99.90;;;;;;5072246;28;20094;-58
2023/03/30 00:45:39;;;;;;;14.82;8.13;;;10.90;99.90;;;;;;5071054;28;20048;-57
2023/03/30 00:48:22;;;;;;;12.05;8.40;;;11.00;99.90;;;;;;5071380;28;20047;-57
2023/03/30 00:50:55;;;;;;;17.95;8.40;;;11.00;99.90;;;;;;5071060;28;20036;-57
2023/03/30 00:53:40;;;;;;;13.90;7.75;;;11.00;99.90;;;;;;5072955;28;20573;-57
2023/03/30 00:56:09;;;;;;;11.60;7.55;;;11.00;99.90;;;;;;5072019;28;20432;-57
2023/03/30 00:58:37;;;;;;;11.45;7.05;;;11.00;99.90;;;;;;5071287;28;20774;-58
2023/03/30 01:01:06;;;;;;;10.65;6.75;;;11.20;99.90;;;;;;5072513;28;20047;-57
2023/03/30 01:03:46;;;;;;;13.80;7.57;;;11.20;99.90;;;;;;5072437;28;20416;-57
2023/03/30 01:06:13;;;;;;;12.00;7.05;;;11.10;99.90;;;;;;5071430;28;20077;-57
2023/03/30 01:08:41;;;;;;;13.27;6.88;;;11.30;99.90;;;;;;5072030;28;20671;-57
2023/03/30 01:11:07;;;;;;;11.40;6.90;;;11.30;99.90;;;;;;5072240;28;21733;-57
2023/03/30 01:13:36;;;;;;;11.65;6.60;;;11.20;99.90;;;;;;5072620;28;20090;-57
2023/03/30 01:16:38;;;;;;;13.70;7.20;;;11.20;99.90;;;;;;5072261;28;20056;-56
2023/03/30 01:19:15;;;;;;;10.15;6.90;;;11.10;99.90;;;;;;5050121;28;20611;-57
2023/03/30 01:22:03;;;;;;;11.18;7.05;;;11.20;99.90;;;;;;5069937;28;20070;-58
2023/03/30 01:25:06;;;;;;;12.63;6.07;;;11.30;99.90;;;;;;5089386;28;20055;-58
2023/03/30 01:27:51;;;;;;;11.93;6.85;;;11.30;99.90;;;;;;5076617;28;20493;-58
2023/03/30 01:30:17;;;;;;;9.85;5.32;;;11.50;99.90;;;;;;5076668;28;20279;-58
2023/03/30 01:33:03;;;;;;;10.70;6.47;;;11.30;99.90;;;;;;5075683;28;20135;-57
2023/03/30 01:35:45;;;;;;;12.73;5.95;;;11.40;99.90;;;;;;5076147;28;20412;-57
2023/03/30 01:38:27;;;;;;;;;;;11.20;99.90;;;;;;5076667;28;20079;-57
2023/03/30 01:41:03;;;;;;;11.50;6.25;;;11.60;99.90;;;;;;5075688;28;20015;-57
2023/03/30 01:43:52;;;;;;;12.73;5.75;;;11.60;99.90;;;;;;5075302;28;20614;-57
2023/03/30 01:46:29;;;;;;;13.15;6.32;;;11.50;99.90;;;;;;5074768;28;20060;-57
2023/03/30 01:49:29;;;;;;;11.05;5.78;;;11.50;99.90;;;;;;5074668;28;20036;-57
2023/03/30 01:52:07;;;;;;;13.07;5.85;;;11.20;99.90;;;;;;5075226;28;20066;-57
2023/03/30 01:54:41;;;;;;;13.43;5.97;;;11.50;99.90;;;;;;5075228;28;20068;-57
2023/03/30 01:57:26;;;;;;;9.63;5.47;;;11.40;99.90;;;;;;5074633;28;20050;-57
2023/03/30 02:00:06;;;;;;;8.35;5.07;;;11.30;99.90;;;;;;5074433;28;20044;-57
2023/03/30 02:02:33;;;;;;;12.85;5.60;;;11.20;99.90;;;;;;5073852;28;20048;-58
2023/03/30 02:05:01;;;;;;;13.10;5.43;;;11.20;99.90;;;;;;5073801;28;20036;-57
2023/03/30 02:07:29;;;;;;;10.95;5.45;;;11.30;99.90;;;;;;5074589;28;20032;-57
2023/03/30 02:10:00;;;;;;;12.00;5.75;;;11.30;99.90;;;;;;5073610;28;20506;-58
2023/03/30 02:12:28;;;;;;;11.52;4.95;;;11.20;99.90;;;;;;5073621;28;20048;-58
2023/03/30 02:15:00;;;;;;;10.30;4.88;;;11.40;99.90;;;;;;5074768;28;20047;-58
2023/03/30 02:17:29;;;;;;;10.85;4.90;;;11.20;99.90;;;;;;5075537;28;20036;-58
2023/03/30 02:19:56;;;;;;;12.00;4.35;;;11.30;99.90;;;;;;5075255;28;20071;-58
2023/03/30 02:22:25;;;;;;;12.65;5.18;;;11.20;99.90;;;;;;5074234;28;20734;-58
2023/03/30 02:24:54;;;;;;;9.88;4.78;;;11.50;99.90;;;;;;5075505;28;20044;-58
2023/03/30 02:27:22;;;;;;;14.07;4.95;;;11.40;99.90;;;;;;5074662;28;20442;-57
2023/03/30 02:29:48;;;;;;;12.48;4.90;;;11.30;99.90;;;;;;5074315;28;20036;-58
2023/03/30 02:32:23;;;;;;;10.20;4.68;;;11.20;99.90;;;;;;5074638;28;20060;-57
2023/03/30 02:35:17;;;;;;;11.48;4.97;;;11.10;99.90;;;;;;5073495;28;20054;-58
2023/03/30 02:38:31;;;;;;;10.15;5.35;;;11.10;99.90;;;;;;5074451;28;20032;-58
2023/03/30 02:41:25;;;;;;;15.25;5.18;;;11.10;99.90;;;;;;5041584;28;20212;-58
2023/03/30 02:44:01;;;;;;;10.68;4.20;;;11.20;99.90;;;;;;5074361;28;20590;-58
2023/03/30 02:46:55;;;;;;;11.32;4.32;;;11.10;99.90;;;;;;5075480;28;20036;-58
2023/03/30 02:49:41;;;;;;;11.27;4.60;;;11.20;99.90;;;;;;5075249;28;20052;-57
2023/03/30 02:52:16;;;;;;;10.18;4.32;;;11.20;99.90;;;;;;5074085;28;20040;-58
2023/03/30 02:55:21;;;;;;;12.35;4.63;;;11.30;99.90;;;;;;5075289;28;20382;-58
2023/03/30 02:58:02;;;;;;;11.77;3.72;;;11.30;99.90;;;;;;5062320;28;20064;-58
2023/03/30 03:00:31;;;;;;;10.70;3.75;;;11.20;99.90;;;;;;5076412;28;20040;-58
2023/03/30 03:03:03;;;;;;;10.98;4.55;;;11.30;99.90;;;;;;5076226;28;20036;-58
2023/03/30 03:05:31;;;;;;;9.90;4.28;;;11.10;99.90;;;;;;5074798;28;20104;-58
2023/03/30 03:07:57;;;;;;;10.10;3.58;;;11.20;99.90;;;;;;5074885;28;20040;-58
2023/03/30 03:10:23;;;;;;;9.00;3.28;;;11.40;99.90;;;;;;5072921;28;20432;-58
2023/03/30 03:12:49;;;;;;;8.73;3.17;;;11.60;99.90;;;;;;5073177;28;20140;-58
2023/03/30 03:15:15;;;;;;;11.02;3.60;;;11.40;99.90;;;;;;5074180;28;20206;-58
2023/03/30 03:17:44;;;;;;;15.57;4.13;;;11.20;99.90;;;;;;5073612;28;20036;-58
2023/03/30 03:20:10;;;;;;;11.55;3.00;;;11.40;99.90;;;;;;5072661;28;20126;-58
2023/03/30 03:22:36;;;;;;;8.50;3.38;;;11.60;99.90;;;;;;5072524;28;20124;-58
2023/03/30 03:25:03;;;;;;;9.27;3.45;;;11.40;99.90;;;;;;5074313;28;20035;-58
2023/03/30 03:27:29;;;;;;;9.55;3.58;;;11.30;99.90;;;;;;5073468;28;20229;-58
2023/03/30 03:29:56;;;;;;;8.35;3.00;;;11.30;99.90;;;;;;5072578;28;20032;-58
2023/03/30 03:32:22;;;;;;;10.20;3.35;;;11.40;99.90;;;;;;5072398;28;20048;-57
2023/03/30 03:34:48;;;;;;;11.13;3.45;;;11.30;99.90;;;;;;5073617;28;20537;-58
2023/03/30 03:37:13;;;;;;;9.48;3.60;;;11.30;99.90;;;;;;5073279;28;20515;-58
2023/03/30 03:39:39;;;;;;;11.93;3.65;;;11.40;99.90;;;;;;5071836;28;20052;-58
2023/03/30 03:42:06;;;;;;;11.48;3.60;;;11.30;99.90;;;;;;5072780;28;20039;-58
2023/03/30 03:44:31;;;;;;;10.23;4.22;;;11.40;99.90;;;;;;5073299;28;20036;-58
2023/03/30 03:46:57;;;;;;;12.52;3.63;;;11.40;99.90;;;;;;5072367;28;20042;-58
2023/03/30 03:49:23;;;;;;;12.85;4.75;;;11.30;99.90;;;;;;5072390;28;20044;-58
2023/03/30 03:51:49;;;;;;;10.45;3.70;;;11.30;99.90;;;;;;5073084;28;20048;-57
2023/03/30 03:54:15;;;;;;;13.10;3.83;;;11.40;99.90;;;;;;5073051;28;20044;-57
2023/03/30 03:56:41;;;;;;;10.23;2.90;;;11.40;99.90;;;;;;5072725;28;20044;-57
2023/03/30 03:59:07;;;;;;;16.15;3.35;;;11.30;99.90;;;;;;5071879;28;20458;-57
2023/03/30 04:01:33;;;;;;;11.20;3.58;;;11.40;99.90;;;;;;5072643;28;20036;-57
2023/03/30 04:03:59;;;;;;;15.15;3.42;;;11.30;99.90;;;;;;5072377;28;20123;-57
2023/03/30 04:06:26;;;;;;;10.45;2.97;;;11.40;99.90;;;;;;5054310;28;20405;-57
2023/03/30 04:08:51;;;;;;;8.85;2.72;;;11.40;99.90;;;;;;5072099;28;20052;-57
2023/03/30 04:11:17;;;;;;;10.60;2.80;;;11.30;99.90;;;;;;5073506;28;20036;-57
2023/03/30 04:13:43;;;;;;;14.70;3.67;;;11.30;99.90;;;;;;5073254;28;20126;-57
2023/03/30 04:16:09;;;;;;;12.70;3.28;;;11.20;99.90;;;;;;5073427;28;20040;-57
2023/03/30 04:18:35;;;;;;;11.70;3.80;;;11.30;99.90;;;;;;5072396;28;20028;-57
2023/03/30 04:21:06;;;;;;;9.40;2.70;;;11.20;99.90;;;;;;5073528;28;20044;-57
2023/03/30 04:23:33;;;;;;;10.48;3.15;;;11.20;99.90;;;;;;5073227;28;20428;-57
2023/03/30 04:26:04;;;;;;;10.82;2.70;;;11.10;99.90;;;;;;5074182;28;20115;-57
2023/03/30 04:28:32;;;;;;;10.95;2.70;;;11.20;99.90;;;;;;5073404;28;20055;-57
2023/03/30 04:31:03;;;;;;;9.50;3.17;;;11.20;99.90;;;;;;5073666;28;20064;-57
2023/03/30 04:33:33;;;;;;;12.57;2.60;;;12.20;99.90;;;;;;5073255;28;20436;-57
2023/03/30 04:36:00;;;;;;;11.75;2.60;;;11.20;99.90;;;;;;5073507;28;20048;-57
2023/03/30 04:38:26;;;;;;;12.88;2.65;;;11.30;99.90;;;;;;5072801;28;20112;-57
2023/03/30 04:40:53;;;;;;;10.57;2.35;;;11.20;99.90;;;;;;5070762;28;20147;-57
2023/03/30 04:43:20;;;;;;;12.85;3.38;;;11.40;99.90;;;;;;5071399;28;20306;-57
2023/03/30 04:45:55;;;;;;;9.20;2.50;;;11.30;99.90;;;;;;5071952;28;20056;-58
2023/03/30 04:48:22;;;;;;;9.93;3.10;;;11.20;99.90;;;;;;5071451;28;20044;-58
2023/03/30 04:50:49;;;;;;;11.63;2.60;;;11.40;99.90;;;;;;5071267;28;20194;-57
2023/03/30 04:53:16;;;;;;;11.50;3.22;;;11.50;99.90;;;;;;5072450;28;20117;-58
2023/03/30 04:55:47;;;;;;;12.32;2.30;;;11.30;99.90;;;;;;5072470;28;20140;-58
2023/03/30 04:58:13;;;;;;;8.25;2.38;;;11.50;99.90;;;;;;5072162;28;20353;-57
2023/03/30 05:00:39;;;;;;;11.35;3.10;;;11.60;99.90;;;;;;5075088;28;20400;-58
2023/03/30 05:03:05;;;;;;;14.18;2.78;;;11.50;99.90;;;;;;5074281;28;20177;-57
2023/03/30 05:05:31;;;;;;;9.63;2.45;;;11.50;99.90;;;;;;5074741;28;20055;-58
2023/03/30 05:07:57;;;;;;;12.25;2.88;;;11.30;99.90;;;;;;5075851;28;20040;-57
2023/03/30 05:10:23;;;;;;;11.82;3.08;;;11.40;99.90;;;;;;5076300;28;20275;-58
2023/03/30 05:12:52;;;;;;;15.90;3.95;;;11.60;99.90;;;;;;5075572;28;20052;-57
2023/03/30 05:15:17;;;;;;;10.05;2.63;;;11.70;99.90;;;;;;5074576;28;20078;-58
2023/03/30 05:17:43;;;;;;;12.05;2.80;;;11.50;99.90;;;;;;5075176;28;20051;-57
2023/03/30 05:20:09;;;;;;;13.38;2.92;;;11.60;99.90;;;;;;5076208;28;20044;-57
2023/03/30 05:22:35;;;;;;;11.75;2.47;;;11.70;99.90;;;;;;5075451;28;20531;-57
2023/03/30 05:25:02;;;;;;;16.17;2.90;;;11.70;99.90;;;;;;5075551;28;20040;-58
2023/03/30 05:27:28;;;;;;;17.05;3.50;;;11.50;99.90;;;;;;5075829;28;20093;-57
2023/03/30 05:29:54;;;;;;;15.50;3.30;;;11.70;99.90;;;;;;5075203;28;20048;-57
2023/03/30 05:32:20;;;;;;;13.45;3.10;;;11.70;99.90;;;;;;5075863;28;20079;-57
2023/03/30 05:34:46;;;;;;;13.52;3.10;;;9.60;99.90;;;;;;5075325;28;20099;-57
2023/03/30 05:37:13;;;;;;;13.60;3.58;;;11.70;99.90;;;;;;5076069;28;20126;-57
2023/03/30 05:39:40;;;;;;;11.00;2.80;;;11.70;99.90;;;;;;5075541;28;20043;-57
2023/03/30 05:42:06;;;;;;;12.38;3.28;;;11.60;99.90;;;;;;5077681;28;20063;-58
2023/03/30 05:44:32;;;;;;;14.93;2.88;;;11.40;99.90;;;;;;5076396;28;20059;-58
2023/03/30 05:46:58;;;;;;;10.30;2.80;;;11.50;99.90;;;;;;5076307;28;20040;-58
2023/03/30 05:49:24;;;;;;;16.70;3.53;;;11.70;99.90;;;;;;5075329;28;20039;-58
2023/03/30 05:51:50;;;;;;;12.02;2.92;;;11.60;99.90;;;;;;5074730;28;20455;-58
2023/03/30 05:54:16;;;;;;;14.40;2.92;;;11.60;99.90;;;;;;5077032;28;20047;-59
2023/03/30 05:56:42;;;;;;;14.20;3.63;;;11.70;99.90;;;;;;5075669;28;20694;-58
2023/03/30 05:59:09;;;;;;;11.82;3.38;;;11.60;99.90;;;;;;5075038;28;20044;-57
2023/03/30 06:01:35;;;;;;;13.85;3.03;;;11.60;99.90;;;;;;5075275;28;20097;-57
2023/03/30 06:04:02;;;;;;;12.48;3.13;;;13.20;99.90;;;;;;5074219;28;20097;-57
2023/03/30 06:06:28;;;;;;;13.82;3.72;;;11.60;99.90;;;;;;5073237;28;20135;-59
2023/03/30 06:08:53;;;;;;;10.40;2.33;;;11.60;99.90;;;;;;5073906;28;20415;-57
2023/03/30 06:11:19;;;;;;;9.57;2.50;;;11.80;99.90;;;;;;5075182;28;20059;-57
2023/03/30 06:13:45;;;;;;;12.95;3.45;;;11.80;99.90;;;;;;5074599;28;20775;-57
2023/03/30 06:16:11;;;;;;;11.85;3.15;;;11.80;99.90;;;;;;5072772;28;20036;-57
2023/03/30 06:18:37;;;;;;;9.48;3.10;;;12.00;99.90;;;;;;5074080;28;20040;-58
2023/03/30 06:21:07;;;;;;;10.55;3.10;;;11.80;99.90;;;;;;5075097;28;20047;-57
2023/03/30 06:23:34;;;;;;;8.80;3.13;;;11.80;99.90;;;;;;5074786;28;20062;-57
2023/03/30 06:26:00;;;;;;;12.60;3.13;;;11.80;99.90;;;;;;5074327;28;20040;-57
2023/03/30 06:28:26;;;;;;;12.02;3.38;;;11.80;99.90;;;;;;5074425;28;20036;-57
2023/03/30 06:30:52;;;;;;;13.20;3.90;;;11.90;99.90;;;;;;5074514;28;20058;-57
2023/03/30 06:33:19;;;;;;;12.07;4.05;;;11.80;99.90;;;;;;5074121;28;20504;-57
2023/03/30 06:35:49;;;;;;;12.90;3.28;;;11.80;99.90;;;;;;5073928;28;20125;-57
2023/03/30 06:38:16;;;;;;;15.13;3.60;;;12.00;99.90;;;;;;5073362;28;20386;-57
2023/03/30 06:40:42;;;;;;;8.57;2.85;;;12.00;99.90;;;;;;5073665;28;20185;-57
2023/03/30 06:43:15;;;;;;;13.05;3.13;;;11.90;99.90;;;;;;5090178;28;21183;-57
2023/03/30 06:45:40;;;;;;;12.25;3.45;;;12.00;99.90;;;;;;5074562;28;20044;-57
2023/03/30 06:48:06;;;;;;;9.48;2.95;;;11.90;99.90;;;;;;5074514;28;20051;-57
2023/03/30 06:50:33;;;;;;;10.13;2.63;;;11.70;99.90;;;;;;5076036;28;20040;-57
2023/03/30 06:52:59;;;;;;;14.73;2.90;;;11.90;99.90;;;;;;5075019;28;20898;-57
2023/03/30 06:55:25;;;;;;;16.05;3.63;;;11.90;99.90;;;;;;5075104;28;20032;-57
2023/03/30 06:57:51;;;;;;;13.70;3.08;;;11.80;99.90;;;;;;5074968;28;20040;-57
2023/03/30 07:00:17;;;;;;;14.60;2.75;;;12.10;99.90;;;;;;5074671;28;20089;-57
2023/03/30 07:02:43;;;;;;;18.00;2.90;;;11.90;99.90;;;;;;5073207;28;20093;-57
2023/03/30 07:05:09;;;;;;;18.25;3.53;;;12.00;99.90;;;;;;5073879;28;20060;-57
2023/03/30 07:07:36;;;;;;;13.27;2.85;;;11.90;99.90;;;;;;5073937;28;20065;-56
2023/03/30 07:10:09;;;;;;;15.65;3.00;;;12.00;99.90;;;;;;5073300;28;20058;-58
2023/03/30 07:12:38;;;;;;;15.18;2.75;;;12.00;99.90;;;;;;5073904;28;20153;-57
2023/03/30 07:15:08;;;;;;;16.90;3.10;;;11.90;99.90;;;;;;5073362;28;20032;-57
2023/03/30 07:17:34;;;;;;;18.30;3.75;;;12.00;99.90;;;;;;5072569;28;20409;-57
2023/03/30 07:20:01;;;;;;;19.77;3.40;;;12.00;99.90;;;;;;5073893;28;20044;-59
2023/03/30 07:22:27;;;;;;;13.70;3.13;;;12.00;99.90;;;;;;5073486;28;20028;-56
2023/03/30 07:24:53;;;;;;;19.45;3.67;;;11.80;99.90;;;;;;5072742;28;20042;-57
2023/03/30 07:27:18;;;;;;;20.30;3.60;;;11.80;99.90;;;;;;5073510;28;20044;-57
2023/03/30 07:29:44;;;;;;;18.00;3.53;;;11.10;99.90;;;;;;5072232;28;20579;-57
2023/03/30 07:32:10;;;;;;;19.33;3.03;;;11.80;99.90;;;;;;5073752;28;20052;-56
2023/03/30 07:34:36;;;;;;;17.17;3.05;;;11.70;99.90;;;;;;5072418;28;20032;-57
2023/03/30 07:37:02;;;;;;;21.65;3.88;;;11.80;99.90;;;;;;5073075;28;20453;-57
2023/03/30 07:39:27;;;;;;;20.08;3.22;;;11.70;99.90;;;;;;5070945;28;20051;-57
2023/03/30 07:41:53;;;;;;;19.83;3.70;;;11.60;99.90;;;;;;5073952;28;20062;-57
2023/03/30 07:44:19;;;;;;;16.58;3.53;;;11.50;99.90;;;;;;5072523;28;20048;-57
2023/03/30 07:46:45;;;;;;;19.15;3.40;;;11.50;99.90;;;;;;5072540;28;20036;-57
2023/03/30 07:49:12;;;;;;;24.50;3.60;;;11.50;99.90;;;;;;5072868;28;20083;-57
2023/03/30 07:51:38;;;;;;;22.88;4.15;;;11.50;99.90;;;;;;5074337;28;20058;-57
2023/03/30 07:54:04;;;;;;;23.70;3.53;;;11.30;99.90;;;;;;5073687;28;20188;-57
2023/03/30 07:56:32;;;;;;;20.42;3.90;;;11.40;99.90;;;;;;5074861;28;20039;-57
2023/03/30 07:58:58;;;;;;;19.30;4.32;;;11.40;99.90;;;;;;5073782;28;20113;-57
2023/03/30 08:01:24;;;;;;;22.83;4.47;;;11.40;99.90;;;;;;5074156;28;20531;-57
2023/03/30 08:03:49;;;;;;;21.70;3.97;;;11.30;99.90;;;;;;5073017;28;20040;-57
2023/03/30 08:06:15;;;;;;;19.90;3.97;;;11.50;99.90;;;;;;5071352;28;20054;-57
2023/03/30 08:08:42;;;;;;;22.90;4.60;;;11.20;99.90;;;;;;5072456;28;20040;-57
2023/03/30 08:11:09;;;;;;;26.17;4.78;;;13.40;99.90;;;;;;5074101;28;20035;-57
2023/03/30 08:13:36;;;;;;;23.90;4.10;;;11.30;99.90;;;;;;5055383;28;20040;-57
2023/03/30 08:16:03;;;;;;;21.67;4.25;;;11.40;99.90;;;;;;5073444;28;20044;-57
2023/03/30 08:18:28;;;;;;;26.95;4.57;;;11.40;99.90;;;;;;5073050;28;20036;-56
2023/03/30 08:20:54;;;;;;;24.85;4.97;;;11.10;99.90;;;;;;5073300;28;20044;-57
2023/03/30 08:23:21;;;;;;;25.42;5.10;;;11.30;99.90;;;;;;5072102;28;20044;-57
2023/03/30 08:25:51;;;;;;;34.95;4.82;;;11.10;99.90;;;;;;5072565;28;20128;-57
2023/03/30 08:28:18;;;;;;;30.65;6.00;;;11.40;99.90;;;;;;5071767;28;20043;-57
2023/03/30 08:30:44;;;;;;;24.35;5.60;;;11.30;99.90;;;;;;5072056;28;20044;-57
2023/03/30 08:33:09;;;;;;;19.50;5.63;;;11.20;99.90;;;;;;5072010;28;20080;-57
2023/03/30 08:35:35;;;;;;;27.15;4.45;;;11.20;99.90;;;;;;5071866;28;20036;-57
2023/03/30 08:38:01;;;;;;;29.63;5.38;;;11.20;99.90;;;;;;5071454;28;20040;-58
2023/03/30 08:40:27;;;;;;;24.48;4.95;;;11.00;99.90;;;;;;5072063;28;20067;-57
2023/03/30 08:43:06;;;;;;;33.92;6.43;;;10.90;99.90;;;;;;5071999;28;20047;-58
2023/03/30 08:45:37;;;;;;;25.67;4.43;;;11.10;99.90;;;;;;5071942;28;20047;-57
2023/03/30 08:48:06;;;;;;;36.97;6.30;;;10.90;99.90;;;;;;5071000;28;20051;-57
2023/03/30 08:50:35;;;;;;;25.88;4.75;;;11.30;99.90;;;;;;5071993;28;20455;-58
2023/03/30 08:53:05;;;;;;;23.95;4.82;;;11.40;99.90;;;;;;5053590;28;20377;-57
2023/03/30 08:55:48;;;;;;;22.65;5.18;;;11.40;99.90;;;;;;5072869;28;20145;-57
2023/03/30 08:58:24;;;;;;;22.17;4.20;;;11.40;99.90;;;;;;5071998;28;20115;-57
2023/03/30 09:01:02;;;;;;;29.08;5.35;;;11.90;99.90;;;;;;5071910;28;20044;-57
2023/03/30 09:03:35;;;;;;;33.38;5.20;;;12.10;99.90;;;;;;5071598;28;20047;-57
2023/03/30 09:06:10;;;;;;;27.75;4.65;;;12.10;99.90;;;;;;5071781;28;21068;-57
2023/03/30 09:08:37;;;;;;;26.05;4.85;;;12.00;99.90;;;;;;5071434;28;20131;-57
2023/03/30 09:11:10;;;;;;;25.35;4.20;;;12.10;99.90;;;;;;5072715;28;20050;-57
2023/03/30 09:13:40;;;;;;;27.48;6.20;;;12.30;99.90;;;;;;5071969;28;20361;-57
2023/03/30 09:16:28;;;;;;;29.48;5.10;;;12.20;99.90;;;;;;5072936;28;20358;-57
2023/03/30 09:18:56;;;;;;;23.92;5.22;;;12.60;99.90;;;;;;5072074;28;20446;-58
2023/03/30 09:21:27;;;;;;;24.67;3.90;;;12.60;99.90;;;;;;5072533;28;20135;-57
2023/03/30 09:23:56;;;;;;;23.00;4.35;;;12.50;99.90;;;;;;5072160;28;20039;-57
2023/03/30 09:26:39;;;;;;;18.42;4.88;;;12.60;99.90;;;;;;5073799;28;20409;-57
2023/03/30 09:29:13;;;;;;;26.55;4.55;;;12.90;99.90;;;;;;5073408;28;20062;-57
2023/03/30 09:32:02;;;;;;;24.60;4.57;;;12.90;99.90;;;;;;5073154;28;20448;-57
2023/03/30 09:34:36;;;;;;;22.25;3.90;;;12.70;99.90;;;;;;5072729;28;20052;-57
2023/03/30 09:37:10;;;;;;;20.98;4.38;;;12.80;99.90;;;;;;5072694;28;20457;-57
2023/03/30 09:39:36;;;;;;;26.42;4.35;;;12.60;99.90;;;;;;5071202;28;20042;-57
2023/03/30 09:42:36;;;;;;;17.25;3.45;;;12.80;99.90;;;;;;5072583;28;20069;-57
2023/03/30 09:45:11;;;;;;;20.38;4.65;;;12.50;99.90;;;;;;5072677;28;20024;-56
2023/03/30 09:47:38;;;;;;;26.63;4.28;;;12.70;99.90;;;;;;5075583;28;20125;-56
2023/03/30 09:50:10;;;;;;;18.52;3.97;;;12.50;99.90;;;;;;5075172;28;20036;-56
2023/03/30 09:52:39;;;;;;;21.25;4.22;;;12.30;99.90;;;;;;5076147;28;20054;-57
2023/03/30 09:55:20;;;;;;;25.13;4.60;;;12.40;99.90;;;;;;5074562;28;20117;-56
2023/03/30 09:57:47;;;;;;;21.70;3.90;;;12.20;99.90;;;;;;5075388;28;20059;-57
2023/03/30 10:00:32;;;;;;;25.67;4.22;;;12.20;99.90;;;;;;5074955;28;21295;-56
2023/03/30 10:03:01;;;;;;;22.08;4.10;;;12.10;99.90;;;;;;5075302;28;20028;-56
2023/03/30 10:05:29;;;;;;;23.98;4.25;;;11.70;99.90;;;;;;5074270;28;20476;-57
2023/03/30 10:08:19;;;;;;;21.70;3.22;;;12.20;99.90;;;;;;5075095;28;20105;-57
2023/03/30 10:10:52;;;;;;;19.45;3.25;;;12.30;99.90;;;;;;5074345;28;20131;-57
2023/03/30 10:13:21;;;;;;;17.23;3.28;;;12.50;99.90;;;;;;5073509;28;20032;-57
2023/03/30 10:15:52;;;;;;;17.70;3.45;;;12.30;99.90;;;;;;5074117;28;20048;-56
2023/03/30 10:18:18;;;;;;;16.70;3.53;;;12.30;99.90;;;;;;5074044;28;20066;-57
2023/03/30 10:20:59;;;;;;;19.23;3.17;;;12.10;99.90;;;;;;5073194;28;20805;-56
2023/03/30 10:23:38;;;;;;;22.73;3.53;;;12.20;99.90;;;;;;5075381;28;20047;-57
2023/03/30 10:26:12;;;;;;;19.13;4.45;;;12.20;99.90;;;;;;5075410;28;20052;-56
2023/03/30 10:28:40;;;;;;;21.77;3.78;;;12.00;99.90;;;;;;5075332;28;20043;-56
2023/03/30 10:31:14;;;;;;;25.02;3.78;;;12.00;99.90;;;;;;5075334;28;20128;-57
2023/03/30 10:33:42;;;;;;;22.67;4.28;;;12.20;99.90;;;;;;5074276;28;20145;-56
2023/03/30 10:36:10;;;;;;;23.58;3.90;;;12.10;99.90;;;;;;5075834;28;20098;-56
2023/03/30 10:38:39;;;;;;;21.60;3.85;;;12.40;99.90;;;;;;5074882;28;20050;-57
2023/03/30 10:41:14;;;;;;;20.85;3.95;;;12.30;99.90;;;;;;5074619;28;20437;-55
2023/03/30 10:43:41;;;;;;;23.27;3.67;;;12.40;99.90;;;;;;5075524;28;20043;-56
2023/03/30 10:46:14;;;;;;;22.50;4.32;;;12.40;99.90;;;;;;5074896;28;20070;-57
2023/03/30 10:49:04;;;;;;;22.98;4.13;;;12.40;99.90;;;;;;5074420;28;20400;-56
2023/03/30 10:52:16;;;;;;;29.98;5.03;;;12.30;99.90;;;;;;5075356;28;20043;-55
2023/03/30 10:54:50;;;;;;;24.48;4.43;;;12.20;99.90;;;;;;5074483;28;20043;-56
2023/03/30 10:57:19;;;;;;;26.17;4.63;;;12.30;99.90;;;;;;5073571;28;20130;-56
2023/03/30 11:00:36;;;;;;;20.05;4.22;;;12.50;99.90;;;;;;5073195;28;20067;-57
2023/03/30 11:03:07;;;;;;;24.58;4.43;;;12.50;99.90;;;;;;5072828;28;20130;-56
2023/03/30 11:05:41;;;;;;;24.65;4.78;;;12.80;99.90;;;;;;5073622;28;20449;-57
2023/03/30 11:08:27;;;;;;;26.20;4.43;;;12.60;99.90;;;;;;5073479;28;20517;-56
2023/03/30 11:10:55;;;;;;;23.13;5.05;;;12.80;99.90;;;;;;5072677;28;20127;-57
2023/03/30 11:13:35;;;;;;;28.98;5.18;;;12.90;99.90;;;;;;5074626;28;20052;-56
2023/03/30 11:16:24;;;;;;;27.95;5.43;;;13.00;99.90;;;;;;5073401;28;20515;-57
2023/03/30 11:18:58;;;;;;;19.20;3.72;;;13.10;99.90;;;;;;5072780;28;20032;-56
2023/03/30 11:21:32;;;;;;;19.73;3.50;;;13.20;99.90;;;;;;5073713;28;20127;-57
2023/03/30 11:24:04;;;;;;;21.60;4.05;;;13.30;99.90;;;;;;5074096;28;20044;-57
2023/03/30 11:27:21;;;;;;;21.85;4.40;;;13.10;99.90;;;;;;5074346;28;20063;-56
2023/03/30 11:29:52;;;;;;;24.50;4.30;;;13.30;99.90;;;;;;5059130;28;20485;-57
2023/03/30 11:32:36;;;;;;;18.83;4.05;;;13.40;99.90;;;;;;5072828;28;20586;-57
2023/03/30 11:35:18;;;;;;;24.05;4.75;;;13.60;99.90;;;;;;5071592;28;20047;-57
2023/03/30 11:38:14;;;;;;;27.33;4.13;;;13.80;99.90;;;;;;5073224;28;20117;-57
2023/03/30 11:40:59;;;;;;;19.90;3.72;;;13.70;99.90;;;;;;5073653;28;20580;-57
2023/03/30 11:43:28;;;;;;;19.27;3.55;;;13.50;99.90;;;;;;5073729;28;20044;-56
2023/03/30 11:46:17;;;;;;;24.08;3.85;;;13.70;99.90;;;;;;5073358;28;20119;-56
2023/03/30 11:49:11;;;;;;;23.23;3.80;;;13.60;99.90;;;;;;5073249;28;20395;-56
2023/03/30 11:52:06;;;;;;;23.42;4.05;;;13.40;99.90;;;;;;5074622;28;20059;-57
2023/03/30 11:54:59;;;;;;;16.73;3.75;;;13.50;99.90;;;;;;5074131;28;20663;-56
2023/03/30 11:57:48;;;;;;;26.05;4.57;;;13.70;99.90;;;;;;5074344;28;20109;-56
2023/03/30 12:00:31;;;;;;;22.58;4.50;;;13.50;99.90;;;;;;5073422;28;20044;-57
2023/03/30 12:03:18;;;;;;;20.85;3.60;;;13.70;99.90;;;;;;5072433;28;20040;-56
2023/03/30 12:05:50;;;;;;;23.00;4.13;;;13.80;99.90;;;;;;5073801;28;20505;-57
2023/03/30 12:08:38;;;;;;;;;;;13.90;99.90;;;;;;5074181;28;20132;-57
2023/03/30 12:11:32;;;;;;;24.45;4.75;;;13.70;99.90;;;;;;5073673;28;20003;-57
2023/03/30 12:13:59;;;;;;;19.00;3.90;;;14.10;99.90;;;;;;5072454;28;20055;-56
2023/03/30 12:16:38;;;;;;;26.75;4.85;;;14.00;99.90;;;;;;5074038;28;20044;-56
2023/03/30 12:19:14;;;;;;;26.42;4.47;;;14.10;99.90;;;;;;5072084;28;20036;-57
2023/03/30 12:21:59;;;;;;;21.25;3.70;;;14.10;99.90;;;;;;5072448;28;20094;-56
2023/03/30 12:24:53;;;;;;;23.58;4.10;;;14.00;99.90;;;;;;5072671;28;20040;-57
2023/03/30 12:27:21;;;;;;;17.40;3.72;;;13.80;99.90;;;;;;5072937;28;20537;-57
2023/03/30 12:29:50;;;;;;;26.50;4.53;;;13.90;99.90;;;;;;5071031;28;20056;-56
2023/03/30 12:32:21;;;;;;;23.25;3.88;;;13.90;99.90;;;;;;5072352;28;20054;-56
2023/03/30 12:34:47;;;;;;;21.85;4.68;;;13.90;99.90;;;;;;5070136;28;20458;-57
2023/03/30 12:37:32;;;;;;;18.42;3.63;;;14.20;99.90;;;;;;5072588;28;20035;-56
2023/03/30 12:40:07;;;;;;;19.38;3.65;;;14.10;99.90;;;;;;5071075;28;20064;-57
2023/03/30 12:42:38;;;;;;;22.58;3.78;;;14.20;99.90;;;;;;5072306;28;20044;-57
2023/03/30 12:45:25;;;;;;;24.60;4.63;;;14.00;99.90;;;;;;5071760;28;20032;-57
2023/03/30 12:48:20;;;;;;;27.30;4.65;;;14.10;99.90;;;;;;5070836;28;20098;-56
2023/03/30 12:50:58;;;;;;;20.48;4.45;;;14.00;99.90;;;;;;5072009;28;20052;-56
2023/03/30 12:53:59;;;;;;;25.20;4.32;;;14.10;99.90;;;;;;5071124;28;20047;-56
2023/03/30 12:56:56;;;;;;;19.33;3.97;;;14.00;99.90;;;;;;5060008;28;20176;-56
2023/03/30 12:59:51;;;;;;;24.63;4.85;;;13.70;99.90;;;;;;5071333;28;20066;-57
2023/03/30 13:02:51;;;;;;;26.88;4.90;;;13.80;99.90;;;;;;5070961;28;20047;-56
2023/03/30 13:05:22;;;;;;;19.70;4.28;;;14.20;99.90;;;;;;5070425;28;20990;-56